sensor_id;sensor_type;location;lat;lon;timestamp;temperature;humidity
10089;DHT22;51898;49.864;8.550;2023-09-19T00:00:09;17.00;92.80
10089;DHT22;51898;49.864;8.550;2023-09-19T00:03:14;17.00;92.80
10089;DHT22;51898;49.864;8.550;2023-09-19T00:06:16;17.10;92.70
10089;DHT22;51898;49.864;8.550;2023-09-19T00:09:18;17.10;92.60
10089;DHT22;51898;49.864;8.550;2023-09-19T00:12:20;17.10;92.60
10089;DHT22;51898;49.864;8.550;2023-09-19T00:15:25;17.10;92.50
10089;DHT22;51898;49.864;8.550;2023-09-19T00:18:30;17.10;92.50
10089;DHT22;51898;49.864;8.550;2023-09-19T00:21:33;17.20;92.40
10089;DHT22;51898;49.864;8.550;2023-09-19T00:24:35;17.20;92.10
10089;DHT22;51898;49.864;8.550;2023-09-19T00:27:38;17.10;92.10
10089;DHT22;51898;49.864;8.550;2023-09-19T00:30:43;17.20;91.90
10089;DHT22;51898;49.864;8.550;2023-09-19T00:33:45;17.20;91.80
10089;DHT22;51898;49.864;8.550;2023-09-19T00:36:47;17.20;91.70
10089;DHT22;51898;49.864;8.550;2023-09-19T00:39:49;17.20;91.70
10089;DHT22;51898;49.864;8.550;2023-09-19T00:42:51;17.20;91.60
10089;DHT22;51898;49.864;8.550;2023-09-19T00:45:55;17.10;91.80
10089;DHT22;51898;49.864;8.550;2023-09-19T00:48:57;17.20;91.70
10089;DHT22;51898;49.864;8.550;2023-09-19T00:51:58;17.20;91.60
10089;DHT22;51898;49.864;8.550;2023-09-19T00:55:01;17.20;91.40
10089;DHT22;51898;49.864;8.550;2023-09-19T00:58:04;17.20;91.50
10089;DHT22;51898;49.864;8.550;2023-09-19T01:01:08;17.20;91.50
10089;DHT22;51898;49.864;8.550;2023-09-19T01:04:10;17.20;91.50
10089;DHT22;51898;49.864;8.550;2023-09-19T01:07:12;17.20;91.60
10089;DHT22;51898;49.864;8.550;2023-09-19T01:10:20;17.20;91.50
10089;DHT22;51898;49.864;8.550;2023-09-19T01:13:28;17.20;91.50
10089;DHT22;51898;49.864;8.550;2023-09-19T01:16:37;17.20;91.50
10089;DHT22;51898;49.864;8.550;2023-09-19T01:23:28;17.30;91.80
10089;DHT22;51898;49.864;8.550;2023-09-19T01:30:17;17.30;91.80
10089;DHT22;51898;49.864;8.550;2023-09-19T01:33:19;17.20;91.70
10089;DHT22;51898;49.864;8.550;2023-09-19T01:36:21;17.20;91.80
10089;DHT22;51898;49.864;8.550;2023-09-19T01:39:24;17.30;91.80
10089;DHT22;51898;49.864;8.550;2023-09-19T01:48:58;17.30;91.70
10089;DHT22;51898;49.864;8.550;2023-09-19T01:52:14;17.40;91.70
10089;DHT22;51898;49.864;8.550;2023-09-19T01:55:19;17.40;91.60
10089;DHT22;51898;49.864;8.550;2023-09-19T01:58:37;17.40;91.50
10089;DHT22;51898;49.864;8.550;2023-09-19T02:01:42;17.50;91.20
10089;DHT22;51898;49.864;8.550;2023-09-19T02:04:46;17.50;91.20
10089;DHT22;51898;49.864;8.550;2023-09-19T02:07:50;17.50;91.20
10089;DHT22;51898;49.864;8.550;2023-09-19T02:10:53;17.50;91.20
10089;DHT22;51898;49.864;8.550;2023-09-19T02:13:55;17.40;91.30
10089;DHT22;51898;49.864;8.550;2023-09-19T02:16:57;17.40;91.40
10089;DHT22;51898;49.864;8.550;2023-09-19T02:19:59;17.40;91.40
10089;DHT22;51898;49.864;8.550;2023-09-19T02:23:02;17.30;91.50
10089;DHT22;51898;49.864;8.550;2023-09-19T02:26:04;17.30;91.70
10089;DHT22;51898;49.864;8.550;2023-09-19T02:29:06;17.30;91.90
10089;DHT22;51898;49.864;8.550;2023-09-19T02:32:08;17.20;92.10
10089;DHT22;51898;49.864;8.550;2023-09-19T02:35:11;17.10;92.10
10089;DHT22;51898;49.864;8.550;2023-09-19T02:38:13;17.00;92.40
10089;DHT22;51898;49.864;8.550;2023-09-19T02:41:16;17.00;92.70
10089;DHT22;51898;49.864;8.550;2023-09-19T02:44:17;17.00;93.00
10089;DHT22;51898;49.864;8.550;2023-09-19T02:47:21;17.00;93.00
10089;DHT22;51898;49.864;8.550;2023-09-19T02:50:23;16.90;93.20
10089;DHT22;51898;49.864;8.550;2023-09-19T02:53:25;16.80;93.40
10089;DHT22;51898;49.864;8.550;2023-09-19T02:56:26;16.70;93.70
10089;DHT22;51898;49.864;8.550;2023-09-19T02:59:28;16.70;93.80
10089;DHT22;51898;49.864;8.550;2023-09-19T03:02:31;16.60;94.20
10089;DHT22;51898;49.864;8.550;2023-09-19T03:05:36;16.60;94.20
10089;DHT22;51898;49.864;8.550;2023-09-19T03:08:39;16.60;94.20
10089;DHT22;51898;49.864;8.550;2023-09-19T03:11:43;16.50;94.10
10089;DHT22;51898;49.864;8.550;2023-09-19T03:14:45;16.50;94.10
10089;DHT22;51898;49.864;8.550;2023-09-19T03:17:48;16.40;94.30
10089;DHT22;51898;49.864;8.550;2023-09-19T03:20:54;16.40;94.50
10089;DHT22;51898;49.864;8.550;2023-09-19T03:23:56;16.30;94.60
10089;DHT22;51898;49.864;8.550;2023-09-19T03:26:58;16.40;94.90
10089;DHT22;51898;49.864;8.550;2023-09-19T03:30:00;16.30;95.00
10089;DHT22;51898;49.864;8.550;2023-09-19T03:33:02;16.30;95.00
10089;DHT22;51898;49.864;8.550;2023-09-19T03:36:04;16.30;95.10
10089;DHT22;51898;49.864;8.550;2023-09-19T03:39:07;16.20;95.00
10089;DHT22;51898;49.864;8.550;2023-09-19T03:42:09;16.20;95.10
10089;DHT22;51898;49.864;8.550;2023-09-19T03:45:11;16.20;95.20
10089;DHT22;51898;49.864;8.550;2023-09-19T03:48:14;16.20;95.30
10089;DHT22;51898;49.864;8.550;2023-09-19T03:51:16;16.10;95.30
10089;DHT22;51898;49.864;8.550;2023-09-19T03:54:17;16.10;95.30
10089;DHT22;51898;49.864;8.550;2023-09-19T03:57:20;16.00;95.20
10089;DHT22;51898;49.864;8.550;2023-09-19T04:00:23;16.00;95.10
10089;DHT22;51898;49.864;8.550;2023-09-19T04:03:27;16.00;95.10
10089;DHT22;51898;49.864;8.550;2023-09-19T04:06:37;15.90;95.30
10089;DHT22;51898;49.864;8.550;2023-09-19T04:09:39;15.90;95.20
10089;DHT22;51898;49.864;8.550;2023-09-19T04:12:41;15.90;95.30
10089;DHT22;51898;49.864;8.550;2023-09-19T04:15:51;15.90;95.50
10089;DHT22;51898;49.864;8.550;2023-09-19T04:18:53;15.90;95.90
10089;DHT22;51898;49.864;8.550;2023-09-19T04:21:54;15.90;96.30
10089;DHT22;51898;49.864;8.550;2023-09-19T04:24:56;16.00;96.50
10089;DHT22;51898;49.864;8.550;2023-09-19T04:27:58;16.00;96.60
10089;DHT22;51898;49.864;8.550;2023-09-19T04:31:03;16.00;96.60
10089;DHT22;51898;49.864;8.550;2023-09-19T04:34:05;16.10;96.40
10089;DHT22;51898;49.864;8.550;2023-09-19T04:37:07;16.10;96.00
10089;DHT22;51898;49.864;8.550;2023-09-19T04:40:10;16.10;95.50
10089;DHT22;51898;49.864;8.550;2023-09-19T04:43:15;16.10;95.00
10089;DHT22;51898;49.864;8.550;2023-09-19T04:46:17;16.10;93.90
10089;DHT22;51898;49.864;8.550;2023-09-19T04:49:19;16.10;93.80
10089;DHT22;51898;49.864;8.550;2023-09-19T04:52:21;16.10;93.70
10089;DHT22;51898;49.864;8.550;2023-09-19T04:55:23;16.20;93.60
10089;DHT22;51898;49.864;8.550;2023-09-19T04:58:25;16.20;93.60
10089;DHT22;51898;49.864;8.550;2023-09-19T05:01:27;16.20;93.60
10089;DHT22;51898;49.864;8.550;2023-09-19T05:04:28;16.20;93.40
10089;DHT22;51898;49.864;8.550;2023-09-19T05:07:30;16.20;92.90
10089;DHT22;51898;49.864;8.550;2023-09-19T05:10:32;16.20;92.60
10089;DHT22;51898;49.864;8.550;2023-09-19T05:13:34;16.20;92.50
10089;DHT22;51898;49.864;8.550;2023-09-19T05:16:36;16.20;92.30
10089;DHT22;51898;49.864;8.550;2023-09-19T05:19:38;16.20;92.00
10089;DHT22;51898;49.864;8.550;2023-09-19T05:22:40;16.20;91.70
10089;DHT22;51898;49.864;8.550;2023-09-19T05:25:42;16.20;91.60
10089;DHT22;51898;49.864;8.550;2023-09-19T05:28:44;16.20;91.40
10089;DHT22;51898;49.864;8.550;2023-09-19T05:31:46;16.20;91.10
10089;DHT22;51898;49.864;8.550;2023-09-19T05:34:48;16.20;90.90
10089;DHT22;51898;49.864;8.550;2023-09-19T05:37:54;16.30;90.90
10089;DHT22;51898;49.864;8.550;2023-09-19T05:40:56;16.30;90.10
10089;DHT22;51898;49.864;8.550;2023-09-19T05:43:58;16.20;89.90
10089;DHT22;51898;49.864;8.550;2023-09-19T05:47:04;16.20;89.70
10089;DHT22;51898;49.864;8.550;2023-09-19T05:50:06;16.20;89.70
10089;DHT22;51898;49.864;8.550;2023-09-19T05:53:10;16.30;89.30
10089;DHT22;51898;49.864;8.550;2023-09-19T05:56:14;16.30;89.60
10089;DHT22;51898;49.864;8.550;2023-09-19T05:59:16;16.40;88.60
10089;DHT22;51898;49.864;8.550;2023-09-19T06:02:18;16.40;88.20
10089;DHT22;51898;49.864;8.550;2023-09-19T06:05:22;16.40;88.00
10089;DHT22;51898;49.864;8.550;2023-09-19T06:08:24;16.40;87.90
10089;DHT22;51898;49.864;8.550;2023-09-19T06:11:27;16.50;87.20
10089;DHT22;51898;49.864;8.550;2023-09-19T06:14:30;16.60;87.50
10089;DHT22;51898;49.864;8.550;2023-09-19T06:17:32;16.70;87.00
10089;DHT22;51898;49.864;8.550;2023-09-19T06:20:34;16.80;86.60
10089;DHT22;51898;49.864;8.550;2023-09-19T06:23:37;16.90;86.10
10089;DHT22;51898;49.864;8.550;2023-09-19T06:26:39;16.90;84.60
10089;DHT22;51898;49.864;8.550;2023-09-19T06:29:41;17.10;84.20
10089;DHT22;51898;49.864;8.550;2023-09-19T06:32:43;17.10;83.80
10089;DHT22;51898;49.864;8.550;2023-09-19T06:35:48;17.20;83.20
10089;DHT22;51898;49.864;8.550;2023-09-19T06:38:49;17.30;83.10
10089;DHT22;51898;49.864;8.550;2023-09-19T06:41:53;17.30;83.00
10089;DHT22;51898;49.864;8.550;2023-09-19T06:44:55;17.40;82.50
10089;DHT22;51898;49.864;8.550;2023-09-19T06:47:59;17.50;82.10
10089;DHT22;51898;49.864;8.550;2023-09-19T06:51:02;17.50;82.00
10089;DHT22;51898;49.864;8.550;2023-09-19T06:54:06;17.60;81.60
10089;DHT22;51898;49.864;8.550;2023-09-19T06:57:08;17.60;80.90
10089;DHT22;51898;49.864;8.550;2023-09-19T07:00:12;17.60;81.30
10089;DHT22;51898;49.864;8.550;2023-09-19T07:03:17;17.70;81.00
10089;DHT22;51898;49.864;8.550;2023-09-19T07:06:23;17.70;80.50
10089;DHT22;51898;49.864;8.550;2023-09-19T07:09:25;17.70;80.60
10089;DHT22;51898;49.864;8.550;2023-09-19T07:12:29;17.70;80.60
10089;DHT22;51898;49.864;8.550;2023-09-19T07:15:33;17.70;80.30
10089;DHT22;51898;49.864;8.550;2023-09-19T07:18:40;17.80;79.80
10089;DHT22;51898;49.864;8.550;2023-09-19T07:21:42;17.80;79.60
10089;DHT22;51898;49.864;8.550;2023-09-19T07:24:43;17.80;79.60
10089;DHT22;51898;49.864;8.550;2023-09-19T07:27:45;17.90;78.90
10089;DHT22;51898;49.864;8.550;2023-09-19T07:30:47;17.90;78.80
10089;DHT22;51898;49.864;8.550;2023-09-19T07:33:49;18.00;77.60
10089;DHT22;51898;49.864;8.550;2023-09-19T07:36:51;18.00;76.90
10089;DHT22;51898;49.864;8.550;2023-09-19T07:39:53;18.00;77.00
10089;DHT22;51898;49.864;8.550;2023-09-19T07:42:55;18.00;76.50
10089;DHT22;51898;49.864;8.550;2023-09-19T07:45:57;18.10;76.00
10089;DHT22;51898;49.864;8.550;2023-09-19T07:49:02;18.10;76.60
10089;DHT22;51898;49.864;8.550;2023-09-19T07:52:04;18.20;75.70
10089;DHT22;51898;49.864;8.550;2023-09-19T07:55:06;18.30;73.70
10089;DHT22;51898;49.864;8.550;2023-09-19T07:58:12;18.40;73.80
10089;DHT22;51898;49.864;8.550;2023-09-19T08:01:14;18.50;74.20
10089;DHT22;51898;49.864;8.550;2023-09-19T08:04:17;18.60;74.40
10089;DHT22;51898;49.864;8.550;2023-09-19T08:07:20;18.70;73.40
10089;DHT22;51898;49.864;8.550;2023-09-19T08:10:24;18.60;71.30
10089;DHT22;51898;49.864;8.550;2023-09-19T08:13:29;18.60;72.10
10089;DHT22;51898;49.864;8.550;2023-09-19T08:16:32;18.60;73.60
10089;DHT22;51898;49.864;8.550;2023-09-19T08:19:34;18.60;73.50
10089;DHT22;51898;49.864;8.550;2023-09-19T08:22:38;18.60;74.30
10089;DHT22;51898;49.864;8.550;2023-09-19T08:25:39;18.70;72.80
10089;DHT22;51898;49.864;8.550;2023-09-19T08:28:41;18.60;73.10
10089;DHT22;51898;49.864;8.550;2023-09-19T08:31:43;18.70;72.50
10089;DHT22;51898;49.864;8.550;2023-09-19T08:34:45;18.80;72.00
10089;DHT22;51898;49.864;8.550;2023-09-19T08:37:47;18.80;69.80
10089;DHT22;51898;49.864;8.550;2023-09-19T08:40:49;18.90;70.40
10089;DHT22;51898;49.864;8.550;2023-09-19T08:43:51;19.00;68.90
10089;DHT22;51898;49.864;8.550;2023-09-19T08:46:56;19.00;67.20
10089;DHT22;51898;49.864;8.550;2023-09-19T08:50:28;19.20;67.20
10089;DHT22;51898;49.864;8.550;2023-09-19T08:53:54;19.30;65.70
10089;DHT22;51898;49.864;8.550;2023-09-19T08:57:06;19.20;64.80
10089;DHT22;51898;49.864;8.550;2023-09-19T09:00:13;19.30;64.60
10089;DHT22;51898;49.864;8.550;2023-09-19T09:03:18;19.30;64.40
10089;DHT22;51898;49.864;8.550;2023-09-19T09:06:22;19.40;64.10
10089;DHT22;51898;49.864;8.550;2023-09-19T09:09:25;19.50;63.20
10089;DHT22;51898;49.864;8.550;2023-09-19T09:12:26;19.50;62.80
10089;DHT22;51898;49.864;8.550;2023-09-19T09:15:29;19.50;61.80
10089;DHT22;51898;49.864;8.550;2023-09-19T09:18:32;19.40;61.50
10089;DHT22;51898;49.864;8.550;2023-09-19T09:21:34;19.20;61.30
10089;DHT22;51898;49.864;8.550;2023-09-19T09:24:56;19.20;60.70
10089;DHT22;51898;49.864;8.550;2023-09-19T09:28:03;19.30;61.20
10089;DHT22;51898;49.864;8.550;2023-09-19T09:31:05;19.50;61.20
10089;DHT22;51898;49.864;8.550;2023-09-19T09:34:11;19.60;61.50
10089;DHT22;51898;49.864;8.550;2023-09-19T09:37:18;19.70;58.70
10089;DHT22;51898;49.864;8.550;2023-09-19T09:40:24;19.80;59.50
10089;DHT22;51898;49.864;8.550;2023-09-19T09:43:39;19.90;58.50
10089;DHT22;51898;49.864;8.550;2023-09-19T09:46:43;19.90;58.00
10089;DHT22;51898;49.864;8.550;2023-09-19T09:49:51;19.60;57.30
10089;DHT22;51898;49.864;8.550;2023-09-19T09:52:56;19.70;58.50
10089;DHT22;51898;49.864;8.550;2023-09-19T09:56:08;19.60;57.40
10089;DHT22;51898;49.864;8.550;2023-09-19T09:59:11;19.60;57.30
10089;DHT22;51898;49.864;8.550;2023-09-19T10:02:29;19.60;57.90
10089;DHT22;51898;49.864;8.550;2023-09-19T10:05:35;19.70;57.80
10089;DHT22;51898;49.864;8.550;2023-09-19T10:09:04;19.80;56.30
10089;DHT22;51898;49.864;8.550;2023-09-19T10:12:16;19.70;55.80
10089;DHT22;51898;49.864;8.550;2023-09-19T10:15:19;19.60;55.70
10089;DHT22;51898;49.864;8.550;2023-09-19T10:18:26;19.60;56.90
10089;DHT22;51898;49.864;8.550;2023-09-19T10:21:29;19.90;57.60
10089;DHT22;51898;49.864;8.550;2023-09-19T10:24:33;20.00;56.30
10089;DHT22;51898;49.864;8.550;2023-09-19T10:27:50;20.20;56.30
10089;DHT22;51898;49.864;8.550;2023-09-19T10:30:55;20.20;56.30
10089;DHT22;51898;49.864;8.550;2023-09-19T10:33:58;19.80;56.10
10089;DHT22;51898;49.864;8.550;2023-09-19T10:37:02;19.80;54.60
10089;DHT22;51898;49.864;8.550;2023-09-19T10:40:08;19.90;56.20
10089;DHT22;51898;49.864;8.550;2023-09-19T10:43:16;20.00;55.40
10089;DHT22;51898;49.864;8.550;2023-09-19T10:46:20;20.10;55.10
10089;DHT22;51898;49.864;8.550;2023-09-19T10:49:23;20.10;55.80
10089;DHT22;51898;49.864;8.550;2023-09-19T10:52:27;20.30;54.70
10089;DHT22;51898;49.864;8.550;2023-09-19T10:55:32;20.40;55.00
10089;DHT22;51898;49.864;8.550;2023-09-19T10:58:34;20.10;54.50
10089;DHT22;51898;49.864;8.550;2023-09-19T11:04:50;20.70;55.30
10089;DHT22;51898;49.864;8.550;2023-09-19T11:07:58;20.90;53.30
10089;DHT22;51898;49.864;8.550;2023-09-19T11:14:42;21.30;52.10
10089;DHT22;51898;49.864;8.550;2023-09-19T11:17:46;21.30;51.70
10089;DHT22;51898;49.864;8.550;2023-09-19T11:20:49;21.40;51.70
10089;DHT22;51898;49.864;8.550;2023-09-19T11:27:23;21.00;52.60
10089;DHT22;51898;49.864;8.550;2023-09-19T11:30:29;21.00;52.50
10089;DHT22;51898;49.864;8.550;2023-09-19T11:33:35;20.70;53.00
10089;DHT22;51898;49.864;8.550;2023-09-19T11:36:42;20.60;52.90
10089;DHT22;51898;49.864;8.550;2023-09-19T11:43:28;21.00;52.00
10089;DHT22;51898;49.864;8.550;2023-09-19T11:49:52;20.90;51.40
10089;DHT22;51898;49.864;8.550;2023-09-19T11:52:54;20.80;52.80
10089;DHT22;51898;49.864;8.550;2023-09-19T11:55:58;21.00;52.00
10089;DHT22;51898;49.864;8.550;2023-09-19T11:59:02;21.20;52.80
10089;DHT22;51898;49.864;8.550;2023-09-19T12:02:05;21.30;52.30
10089;DHT22;51898;49.864;8.550;2023-09-19T12:05:08;21.50;52.00
10089;DHT22;51898;49.864;8.550;2023-09-19T12:08:14;21.50;50.40
10089;DHT22;51898;49.864;8.550;2023-09-19T12:11:17;21.50;50.70
10089;DHT22;51898;49.864;8.550;2023-09-19T12:14:22;21.30;51.20
10089;DHT22;51898;49.864;8.550;2023-09-19T12:17:40;21.20;51.70
10089;DHT22;51898;49.864;8.550;2023-09-19T12:20:44;21.20;52.60
10089;DHT22;51898;49.864;8.550;2023-09-19T12:24:04;21.50;50.30
10089;DHT22;51898;49.864;8.550;2023-09-19T12:27:08;21.60;49.70
10089;DHT22;51898;49.864;8.550;2023-09-19T12:30:11;21.60;50.20
10089;DHT22;51898;49.864;8.550;2023-09-19T12:33:28;21.70;48.60
10089;DHT22;51898;49.864;8.550;2023-09-19T12:36:31;21.70;48.40
10089;DHT22;51898;49.864;8.550;2023-09-19T12:39:36;21.70;47.60
10089;DHT22;51898;49.864;8.550;2023-09-19T12:42:38;21.80;47.60
10089;DHT22;51898;49.864;8.550;2023-09-19T12:45:42;21.90;48.10
10089;DHT22;51898;49.864;8.550;2023-09-19T12:49:18;22.00;49.40
10089;DHT22;51898;49.864;8.550;2023-09-19T12:52:20;22.20;46.70
10089;DHT22;51898;49.864;8.550;2023-09-19T12:55:27;22.10;47.60
10089;DHT22;51898;49.864;8.550;2023-09-19T12:58:29;22.30;48.30
10089;DHT22;51898;49.864;8.550;2023-09-19T13:01:32;22.30;47.20
10089;DHT22;51898;49.864;8.550;2023-09-19T13:04:38;22.40;47.10
10089;DHT22;51898;49.864;8.550;2023-09-19T13:07:44;22.20;47.70
10089;DHT22;51898;49.864;8.550;2023-09-19T13:11:14;22.10;47.30
10089;DHT22;51898;49.864;8.550;2023-09-19T13:14:22;22.00;48.40
10089;DHT22;51898;49.864;8.550;2023-09-19T13:17:42;22.00;48.60
10089;DHT22;51898;49.864;8.550;2023-09-19T13:21:08;22.10;47.40
10089;DHT22;51898;49.864;8.550;2023-09-19T13:24:25;22.20;48.40
10089;DHT22;51898;49.864;8.550;2023-09-19T13:27:29;22.30;47.50
10089;DHT22;51898;49.864;8.550;2023-09-19T13:30:31;22.40;48.10
10089;DHT22;51898;49.864;8.550;2023-09-19T13:33:35;22.50;48.30
10089;DHT22;51898;49.864;8.550;2023-09-19T13:36:44;22.70;48.80
10089;DHT22;51898;49.864;8.550;2023-09-19T13:39:45;22.60;47.90
10089;DHT22;51898;49.864;8.550;2023-09-19T13:42:49;22.50;48.20
10089;DHT22;51898;49.864;8.550;2023-09-19T13:45:55;22.60;48.30
10089;DHT22;51898;49.864;8.550;2023-09-19T13:48:59;22.60;48.90
10089;DHT22;51898;49.864;8.550;2023-09-19T13:52:01;22.60;49.50
10089;DHT22;51898;49.864;8.550;2023-09-19T13:55:06;22.70;49.10
10089;DHT22;51898;49.864;8.550;2023-09-19T13:58:08;23.00;47.60
10089;DHT22;51898;49.864;8.550;2023-09-19T14:01:12;22.90;47.80
10089;DHT22;51898;49.864;8.550;2023-09-19T14:04:14;22.90;48.20
10089;DHT22;51898;49.864;8.550;2023-09-19T14:07:17;22.90;48.00
10089;DHT22;51898;49.864;8.550;2023-09-19T14:10:20;22.90;47.20
10089;DHT22;51898;49.864;8.550;2023-09-19T14:13:22;22.70;48.20
10089;DHT22;51898;49.864;8.550;2023-09-19T14:16:23;22.40;48.30
10089;DHT22;51898;49.864;8.550;2023-09-19T14:19:27;22.50;48.60
10089;DHT22;51898;49.864;8.550;2023-09-19T14:22:31;22.40;49.20
10089;DHT22;51898;49.864;8.550;2023-09-19T14:25:36;22.40;49.90
10089;DHT22;51898;49.864;8.550;2023-09-19T14:28:39;22.50;51.00
10089;DHT22;51898;49.864;8.550;2023-09-19T14:31:42;22.50;49.30
10089;DHT22;51898;49.864;8.550;2023-09-19T14:34:44;22.40;49.40
10089;DHT22;51898;49.864;8.550;2023-09-19T14:37:46;22.30;49.30
10089;DHT22;51898;49.864;8.550;2023-09-19T14:40:48;22.30;50.50
10089;DHT22;51898;49.864;8.550;2023-09-19T14:43:52;22.40;50.40
10089;DHT22;51898;49.864;8.550;2023-09-19T14:46:54;22.50;50.90
10089;DHT22;51898;49.864;8.550;2023-09-19T14:50:03;22.60;49.80
10089;DHT22;51898;49.864;8.550;2023-09-19T14:53:08;22.60;49.60
10089;DHT22;51898;49.864;8.550;2023-09-19T14:56:12;22.50;50.10
10089;DHT22;51898;49.864;8.550;2023-09-19T14:59:17;22.50;50.30
10089;DHT22;51898;49.864;8.550;2023-09-19T15:02:22;22.60;50.60
10089;DHT22;51898;49.864;8.550;2023-09-19T15:05:24;22.50;50.10
10089;DHT22;51898;49.864;8.550;2023-09-19T15:08:26;22.40;49.60
10089;DHT22;51898;49.864;8.550;2023-09-19T15:11:28;22.50;49.50
10089;DHT22;51898;49.864;8.550;2023-09-19T15:14:30;22.60;50.20
10089;DHT22;51898;49.864;8.550;2023-09-19T15:17:31;22.80;50.30
10089;DHT22;51898;49.864;8.550;2023-09-19T15:20:35;23.00;49.60
10089;DHT22;51898;49.864;8.550;2023-09-19T15:23:39;23.10;49.60
10089;DHT22;51898;49.864;8.550;2023-09-19T15:26:41;23.20;49.40
10089;DHT22;51898;49.864;8.550;2023-09-19T15:29:45;23.10;49.20
10089;DHT22;51898;49.864;8.550;2023-09-19T15:32:47;23.20;49.90
10089;DHT22;51898;49.864;8.550;2023-09-19T15:35:50;23.40;49.60
10089;DHT22;51898;49.864;8.550;2023-09-19T15:39:05;23.60;49.00
10089;DHT22;51898;49.864;8.550;2023-09-19T15:42:08;23.70;49.50
10089;DHT22;51898;49.864;8.550;2023-09-19T15:45:10;23.60;48.50
10089;DHT22;51898;49.864;8.550;2023-09-19T15:48:12;23.60;47.90
10089;DHT22;51898;49.864;8.550;2023-09-19T15:51:14;23.40;49.20
10089;DHT22;51898;49.864;8.550;2023-09-19T15:54:19;23.60;49.20
10089;DHT22;51898;49.864;8.550;2023-09-19T15:57:20;23.60;48.90
10089;DHT22;51898;49.864;8.550;2023-09-19T16:00:25;23.70;48.80
10089;DHT22;51898;49.864;8.550;2023-09-19T16:03:27;23.50;49.30
10089;DHT22;51898;49.864;8.550;2023-09-19T16:06:30;23.30;49.30
10089;DHT22;51898;49.864;8.550;2023-09-19T16:09:33;23.10;50.20
10089;DHT22;51898;49.864;8.550;2023-09-19T16:12:35;23.10;50.80
10089;DHT22;51898;49.864;8.550;2023-09-19T16:15:41;23.00;51.20
10089;DHT22;51898;49.864;8.550;2023-09-19T16:18:46;22.70;51.70
10089;DHT22;51898;49.864;8.550;2023-09-19T16:21:49;22.60;52.20
10089;DHT22;51898;49.864;8.550;2023-09-19T16:24:50;22.40;52.50
10089;DHT22;51898;49.864;8.550;2023-09-19T16:27:52;22.30;52.90
10089;DHT22;51898;49.864;8.550;2023-09-19T16:30:58;22.10;53.30
10089;DHT22;51898;49.864;8.550;2023-09-19T16:34:00;22.00;54.20
10089;DHT22;51898;49.864;8.550;2023-09-19T16:37:02;22.00;54.40
10089;DHT22;51898;49.864;8.550;2023-09-19T16:40:05;21.80;54.30
10089;DHT22;51898;49.864;8.550;2023-09-19T16:43:08;21.70;55.00
10089;DHT22;51898;49.864;8.550;2023-09-19T16:46:10;21.70;55.60
10089;DHT22;51898;49.864;8.550;2023-09-19T16:49:13;21.70;56.10
10089;DHT22;51898;49.864;8.550;2023-09-19T16:52:16;21.60;55.90
10089;DHT22;51898;49.864;8.550;2023-09-19T16:55:17;21.50;55.90
10089;DHT22;51898;49.864;8.550;2023-09-19T16:58:22;21.40;56.30
10089;DHT22;51898;49.864;8.550;2023-09-19T17:01:24;21.40;57.50
10089;DHT22;51898;49.864;8.550;2023-09-19T17:04:26;21.30;57.20
10089;DHT22;51898;49.864;8.550;2023-09-19T17:07:30;21.30;56.90
10089;DHT22;51898;49.864;8.550;2023-09-19T17:10:34;21.30;57.20
10089;DHT22;51898;49.864;8.550;2023-09-19T17:13:37;21.20;58.00
10089;DHT22;51898;49.864;8.550;2023-09-19T17:16:38;21.20;58.20
10089;DHT22;51898;49.864;8.550;2023-09-19T17:19:41;21.10;58.70
10089;DHT22;51898;49.864;8.550;2023-09-19T17:22:42;21.10;59.00
10089;DHT22;51898;49.864;8.550;2023-09-19T17:25:45;21.00;59.90
10089;DHT22;51898;49.864;8.550;2023-09-19T17:28:47;20.90;59.90
10089;DHT22;51898;49.864;8.550;2023-09-19T17:31:48;20.80;59.30
10089;DHT22;51898;49.864;8.550;2023-09-19T17:34:50;20.60;58.30
10089;DHT22;51898;49.864;8.550;2023-09-19T17:37:52;20.60;57.90
10089;DHT22;51898;49.864;8.550;2023-09-19T17:40:54;20.50;58.20
10089;DHT22;51898;49.864;8.550;2023-09-19T17:43:58;20.50;57.80
10089;DHT22;51898;49.864;8.550;2023-09-19T17:47:01;20.40;58.80
10089;DHT22;51898;49.864;8.550;2023-09-19T17:50:03;20.30;58.60
10089;DHT22;51898;49.864;8.550;2023-09-19T17:53:05;20.30;58.90
10089;DHT22;51898;49.864;8.550;2023-09-19T17:56:09;20.20;59.30
10089;DHT22;51898;49.864;8.550;2023-09-19T17:59:11;20.10;59.20
10089;DHT22;51898;49.864;8.550;2023-09-19T18:02:15;20.00;59.60
10089;DHT22;51898;49.864;8.550;2023-09-19T18:05:17;19.90;60.00
10089;DHT22;51898;49.864;8.550;2023-09-19T18:08:20;19.80;60.10
10089;DHT22;51898;49.864;8.550;2023-09-19T18:11:23;19.70;60.50
10089;DHT22;51898;49.864;8.550;2023-09-19T18:14:29;19.60;60.80
10089;DHT22;51898;49.864;8.550;2023-09-19T18:17:33;19.60;60.80
10089;DHT22;51898;49.864;8.550;2023-09-19T18:20:38;19.50;61.10
10089;DHT22;51898;49.864;8.550;2023-09-19T18:23:41;19.40;61.70
10089;DHT22;51898;49.864;8.550;2023-09-19T18:26:43;19.40;62.10
10089;DHT22;51898;49.864;8.550;2023-09-19T18:29:45;19.30;62.00
10089;DHT22;51898;49.864;8.550;2023-09-19T18:32:48;19.20;62.30
10089;DHT22;51898;49.864;8.550;2023-09-19T18:36:02;19.20;62.70
10089;DHT22;51898;49.864;8.550;2023-09-19T18:39:04;19.10;63.20
10089;DHT22;51898;49.864;8.550;2023-09-19T18:42:06;19.00;63.50
10089;DHT22;51898;49.864;8.550;2023-09-19T18:45:08;19.00;63.70
10089;DHT22;51898;49.864;8.550;2023-09-19T18:48:15;18.90;63.90
10089;DHT22;51898;49.864;8.550;2023-09-19T18:51:19;18.90;64.50
10089;DHT22;51898;49.864;8.550;2023-09-19T18:54:20;18.80;64.90
10089;DHT22;51898;49.864;8.550;2023-09-19T18:57:22;18.80;65.00
10089;DHT22;51898;49.864;8.550;2023-09-19T19:00:24;18.70;65.20
10089;DHT22;51898;49.864;8.550;2023-09-19T19:03:30;18.70;65.70
10089;DHT22;51898;49.864;8.550;2023-09-19T19:06:32;18.70;65.70
10089;DHT22;51898;49.864;8.550;2023-09-19T19:09:34;18.70;66.10
10089;DHT22;51898;49.864;8.550;2023-09-19T19:12:36;18.70;66.20
10089;DHT22;51898;49.864;8.550;2023-09-19T19:15:37;18.70;66.00
10089;DHT22;51898;49.864;8.550;2023-09-19T19:18:40;18.80;65.70
10089;DHT22;51898;49.864;8.550;2023-09-19T19:21:42;18.70;66.10
10089;DHT22;51898;49.864;8.550;2023-09-19T19:24:44;18.70;66.40
10089;DHT22;51898;49.864;8.550;2023-09-19T19:27:46;18.70;66.30
10089;DHT22;51898;49.864;8.550;2023-09-19T19:30:49;18.70;66.50
10089;DHT22;51898;49.864;8.550;2023-09-19T19:33:52;18.60;66.90
10089;DHT22;51898;49.864;8.550;2023-09-19T19:36:58;18.50;67.20
10089;DHT22;51898;49.864;8.550;2023-09-19T19:40:00;18.40;67.30
10089;DHT22;51898;49.864;8.550;2023-09-19T19:43:03;18.40;67.40
10089;DHT22;51898;49.864;8.550;2023-09-19T19:46:05;18.40;67.60
10089;DHT22;51898;49.864;8.550;2023-09-19T19:49:07;18.30;68.00
10089;DHT22;51898;49.864;8.550;2023-09-19T19:52:09;18.30;68.00